createdAt,value
2019-04-26T00:00:45.934Z,52.30
2019-04-26T00:03:16.323Z,52.10
2019-04-26T00:05:45.172Z,52.40
2019-04-26T00:08:13.920Z,51.90
2019-04-26T00:10:47.709Z,51.60
2019-04-26T00:13:18.328Z,52.20
2019-04-26T00:15:51.470Z,52.30
2019-04-26T00:18:20.963Z,52.10
2019-04-26T00:20:49.703Z,52.00
2019-04-26T00:23:18.454Z,52.30
2019-04-26T00:25:47.135Z,52.30
2019-04-26T00:28:16.927Z,52.20
2019-04-26T00:30:45.770Z,52.40
2019-04-26T00:33:15.251Z,51.90
2019-04-26T00:35:47.583Z,52.60
2019-04-26T00:38:14.381Z,52.10
2019-04-26T00:40:44.727Z,51.70
2019-04-26T00:43:14.294Z,51.80
2019-04-26T00:45:43.706Z,52.40
2019-04-26T00:48:15.340Z,57.40
2019-04-26T00:50:44.685Z,59.50
2019-04-26T00:53:16.000Z,60.00
2019-04-26T00:55:45.090Z,60.80
2019-04-26T00:58:16.293Z,61.50
2019-04-26T01:00:45.156Z,63.20
2019-04-26T01:03:15.146Z,62.40
2019-04-26T01:05:44.130Z,60.00
2019-04-26T01:08:12.944Z,60.00
2019-04-26T01:10:41.621Z,60.40
2019-04-26T01:13:10.441Z,60.20
2019-04-26T01:15:39.125Z,60.30
2019-04-26T01:18:07.879Z,61.50
2019-04-26T01:20:37.695Z,62.30
2019-04-26T01:23:08.741Z,61.70
2019-04-26T01:26:02.921Z,61.10
2019-04-26T01:28:40.198Z,61.70
2019-04-26T01:31:09.161Z,61.80
2019-04-26T01:33:38.697Z,61.00
2019-04-26T01:36:13.089Z,59.00
2019-04-26T01:38:37.518Z,59.50
2019-04-26T01:41:08.507Z,58.90
2019-04-26T01:43:44.747Z,58.40
2019-04-26T01:46:36.178Z,57.80
2019-04-26T01:49:08.006Z,56.60
2019-04-26T01:51:39.676Z,56.40
2019-04-26T01:54:11.199Z,56.10
2019-04-26T01:56:40.041Z,55.60
2019-04-26T01:59:11.860Z,55.20
2019-04-26T02:01:54.072Z,55.20
2019-04-26T02:04:25.700Z,55.40
2019-04-26T02:06:54.385Z,55.40
2019-04-26T02:09:24.292Z,55.60
2019-04-26T02:11:53.021Z,55.60
2019-04-26T02:14:22.654Z,55.50
2019-04-26T02:16:52.266Z,55.60
2019-04-26T02:19:21.514Z,55.70
2019-04-26T02:21:52.005Z,55.60
2019-04-26T02:24:28.253Z,55.90
2019-04-26T02:26:57.499Z,56.00
2019-04-26T02:29:26.951Z,55.60
2019-04-26T02:31:58.712Z,55.60
2019-04-26T02:34:30.810Z,55.80
2019-04-26T02:37:02.114Z,56.10
2019-04-26T02:39:35.328Z,56.00
2019-04-26T02:42:07.137Z,55.70
2019-04-26T02:44:39.310Z,55.50
2019-04-26T02:47:34.661Z,55.40
2019-04-26T02:50:07.421Z,56.10
2019-04-26T02:52:58.517Z,55.80
2019-04-26T02:56:03.107Z,55.40
2019-04-26T02:58:35.987Z,56.00
2019-04-26T03:01:05.282Z,56.10
2019-04-26T03:03:35.649Z,56.20
2019-04-26T03:06:04.417Z,56.20
2019-04-26T03:08:37.169Z,56.40
2019-04-26T03:11:09.165Z,56.50
2019-04-26T03:13:43.692Z,56.50
2019-04-26T03:16:23.110Z,56.40
2019-04-26T03:18:58.942Z,56.50
2019-04-26T03:21:39.403Z,56.60
2019-04-26T03:24:23.093Z,56.40
2019-04-26T03:27:15.761Z,56.40
2019-04-26T03:30:19.684Z,56.50
2019-04-26T03:32:50.420Z,56.70
2019-04-26T03:35:25.563Z,56.80
2019-04-26T03:38:13.469Z,57.20
2019-04-26T03:40:58.316Z,56.80
2019-04-26T03:43:36.985Z,56.70
2019-04-26T03:46:14.842Z,56.90
2019-04-26T03:48:58.478Z,57.10
2019-04-26T03:51:49.656Z,56.30
2019-04-26T03:54:19.081Z,56.10
2019-04-26T03:56:52.412Z,56.00
2019-04-26T03:59:44.219Z,55.60
2019-04-26T04:02:18.257Z,55.80
2019-04-26T04:04:54.379Z,55.80
2019-04-26T04:07:36.993Z,55.50
2019-04-26T04:10:19.637Z,55.90
2019-04-26T04:13:00.030Z,56.00
2019-04-26T04:15:44.875Z,55.60
2019-04-26T04:18:29.257Z,55.50
2019-04-26T04:21:20.234Z,55.10
2019-04-26T04:23:51.921Z,55.20
2019-04-26T04:26:49.168Z,55.00
2019-04-26T04:29:42.827Z,55.10
2019-04-26T04:32:28.530Z,55.00
2019-04-26T04:35:00.209Z,54.80
2019-04-26T04:37:31.894Z,54.70
2019-04-26T04:40:20.089Z,54.80
2019-04-26T04:43:20.063Z,55.00
2019-04-26T04:46:08.240Z,55.40
2019-04-26T04:48:51.140Z,55.20
2019-04-26T04:51:38.850Z,55.10
2019-04-26T04:54:38.916Z,54.60
2019-04-26T04:57:13.588Z,54.90
2019-04-26T04:59:46.107Z,54.60
2019-04-26T05:02:19.497Z,54.20
2019-04-26T05:05:09.134Z,53.60
2019-04-26T05:07:47.293Z,53.00
2019-04-26T05:10:24.961Z,52.00
2019-04-26T05:13:02.317Z,51.10
2019-04-26T05:16:21.797Z,50.00
2019-04-26T05:18:56.411Z,49.30
2019-04-26T05:21:47.118Z,48.60
2019-04-26T05:24:39.634Z,47.60
2019-04-26T05:27:18.761Z,47.00
2019-04-26T05:29:57.925Z,46.80
2019-04-26T05:32:38.300Z,46.70
2019-04-26T05:35:35.052Z,46.60
2019-04-26T05:38:18.872Z,46.80
2019-04-26T05:41:11.570Z,47.20
2019-04-26T05:43:56.218Z,46.90
2019-04-26T05:46:55.765Z,46.90
2019-04-26T05:49:55.904Z,45.50
2019-04-26T05:52:47.323Z,45.30
2019-04-26T05:55:41.276Z,45.40
2019-04-26T05:58:32.083Z,45.10
2019-04-26T06:01:20.229Z,45.60
2019-04-26T06:04:27.597Z,44.90
2019-04-26T06:07:03.649Z,44.80
2019-04-26T06:10:04.953Z,44.20
2019-04-26T06:13:02.911Z,44.90
2019-04-26T06:15:47.325Z,45.10
2019-04-26T06:18:23.591Z,44.50
2019-04-26T06:21:02.058Z,44.20
2019-04-26T06:23:52.901Z,44.00
2019-04-26T06:26:54.252Z,44.20
2019-04-26T06:29:26.336Z,43.30
2019-04-26T06:32:17.206Z,42.90
2019-04-26T06:34:46.623Z,43.30
2019-04-26T06:37:19.958Z,41.80
2019-04-26T06:39:51.636Z,42.50
2019-04-26T06:42:38.313Z,42.60
2019-04-26T06:45:17.400Z,43.00
2019-04-26T06:48:06.045Z,42.60
2019-04-26T06:50:49.393Z,42.60
2019-04-26T06:53:46.338Z,42.50
2019-04-26T06:56:34.429Z,42.20
2019-04-26T06:59:17.089Z,42.60
2019-04-26T07:01:51.269Z,41.80
2019-04-26T07:04:34.672Z,40.90
2019-04-26T07:07:18.302Z,41.20
2019-04-26T07:10:02.530Z,41.70
2019-04-26T07:12:36.965Z,41.20
2019-04-26T07:15:29.021Z,41.30
2019-04-26T07:18:04.383Z,40.90
2019-04-26T07:20:37.733Z,39.40
2019-04-26T07:23:37.724Z,39.40
2019-04-26T07:26:27.403Z,39.70
2019-04-26T07:29:09.148Z,40.20
2019-04-26T07:32:08.049Z,40.70
2019-04-26T07:34:44.033Z,40.90
2019-04-26T07:37:48.450Z,41.30
2019-04-26T07:41:09.773Z,42.30
2019-04-26T07:43:59.573Z,42.70
2019-04-26T07:46:36.817Z,43.10
2019-04-26T07:49:12.419Z,43.30
2019-04-26T07:52:18.850Z,43.40
2019-04-26T07:54:59.436Z,43.70
2019-04-26T07:57:42.849Z,44.10
2019-04-26T08:00:44.321Z,44.10
2019-04-26T08:03:22.738Z,44.10
2019-04-26T08:06:07.374Z,43.90
2019-04-26T08:08:48.170Z,43.10
2019-04-26T08:11:25.264Z,42.50
2019-04-26T08:14:06.234Z,42.40
2019-04-26T08:16:55.293Z,42.40
2019-04-26T08:19:26.681Z,42.60
2019-04-26T08:22:11.615Z,42.80
2019-04-26T08:24:30.057Z,43.20
2019-04-26T08:27:18.673Z,42.10
2019-04-26T08:29:43.908Z,42.30
2019-04-26T08:32:17.221Z,42.30
2019-04-26T08:34:49.292Z,42.00
2019-04-26T08:37:28.471Z,41.30
2019-04-26T08:39:58.705Z,40.90
2019-04-26T08:42:35.512Z,41.40
2019-04-26T08:45:25.645Z,40.90
2019-04-26T08:48:15.196Z,41.20
2019-04-26T08:50:47.049Z,41.00
2019-04-26T08:53:17.699Z,40.80
2019-04-26T08:55:48.143Z,40.90
2019-04-26T08:58:19.829Z,41.10
2019-04-26T09:00:57.912Z,41.60
2019-04-26T09:03:39.959Z,40.50
2019-04-26T09:06:15.613Z,40.50
2019-04-26T09:08:47.301Z,40.50
2019-04-26T09:11:25.846Z,40.70
2019-04-26T09:13:51.120Z,41.00
2019-04-26T09:16:20.944Z,40.60
2019-04-26T09:18:54.387Z,40.10
2019-04-26T09:21:22.009Z,39.90
2019-04-26T09:24:01.634Z,40.30
2019-04-26T09:26:48.519Z,40.00
2019-04-26T09:29:30.291Z,40.50
2019-04-26T09:31:59.613Z,41.20
2019-04-26T09:34:32.489Z,40.20
2019-04-26T09:37:01.233Z,40.60
2019-04-26T09:39:30.180Z,40.20
2019-04-26T09:42:01.239Z,39.80
2019-04-26T09:44:32.596Z,40.00
2019-04-26T09:47:02.977Z,40.30
2019-04-26T09:49:41.143Z,39.50
2019-04-26T09:52:10.815Z,39.10
2019-04-26T09:54:39.488Z,39.00
2019-04-26T09:57:08.301Z,38.60
2019-04-26T09:59:40.094Z,38.40
2019-04-26T10:02:08.517Z,39.00
2019-04-26T10:04:37.265Z,37.80
2019-04-26T10:07:06.025Z,37.60
2019-04-26T10:09:34.701Z,37.80
2019-04-26T10:12:21.066Z,37.70
2019-04-26T10:14:51.445Z,36.90
2019-04-26T10:17:21.766Z,37.30
2019-04-26T10:19:52.135Z,37.50
2019-04-26T10:22:22.772Z,37.90
2019-04-26T10:24:51.520Z,38.40
2019-04-26T10:27:20.188Z,38.30
2019-04-26T10:29:48.965Z,37.80
2019-04-26T10:32:21.811Z,37.90
2019-04-26T10:34:48.944Z,37.80
2019-04-26T10:37:17.717Z,38.00
2019-04-26T10:39:46.395Z,37.30
2019-04-26T10:42:15.532Z,37.20
2019-04-26T10:44:44.281Z,37.10
2019-04-26T10:47:15.623Z,37.50
2019-04-26T10:49:44.927Z,38.20
2019-04-26T10:52:17.109Z,38.50
2019-04-26T10:55:02.642Z,38.30
2019-04-26T10:57:33.121Z,38.40
2019-04-26T11:00:03.513Z,39.30
2019-04-26T11:02:32.357Z,38.70
2019-04-26T11:05:01.105Z,38.10
2019-04-26T11:07:29.849Z,37.50
2019-04-26T11:09:58.598Z,37.30
2019-04-26T11:12:27.344Z,37.50
2019-04-26T11:14:56.930Z,37.30
2019-04-26T11:17:26.333Z,37.60
2019-04-26T11:19:55.088Z,37.10
2019-04-26T11:22:29.182Z,37.60
2019-04-26T11:24:55.016Z,36.60
2019-04-26T11:27:23.806Z,37.30
2019-04-26T11:29:53.988Z,37.40
2019-04-26T11:32:22.943Z,36.20
2019-04-26T11:34:54.536Z,36.60
2019-04-26T11:37:22.019Z,36.30
2019-04-26T11:39:50.727Z,37.10
2019-04-26T11:42:19.374Z,36.80
2019-04-26T11:44:48.134Z,36.90
2019-04-26T11:47:16.726Z,36.80
2019-04-26T11:49:45.461Z,36.90
2019-04-26T11:52:14.156Z,37.10
2019-04-26T11:54:42.842Z,36.90
2019-04-26T11:57:12.131Z,37.10
2019-04-26T11:59:41.900Z,37.00
2019-04-26T12:02:12.201Z,37.20
2019-04-26T12:04:42.572Z,37.80
2019-04-26T12:07:18.809Z,37.70
2019-04-26T12:09:49.126Z,37.60
2019-04-26T12:12:17.818Z,38.00
2019-04-26T12:14:46.561Z,40.30
2019-04-26T12:17:15.245Z,45.60
2019-04-26T12:19:44.004Z,45.50
2019-04-26T12:22:12.747Z,47.90
2019-04-26T12:24:41.561Z,48.10
2019-04-26T12:27:10.677Z,48.90
2019-04-26T12:29:39.486Z,48.90
2019-04-26T12:32:08.161Z,52.60
2019-04-26T12:34:36.828Z,52.30
2019-04-26T12:37:05.579Z,52.60
2019-04-26T12:39:36.583Z,48.70
2019-04-26T12:42:08.137Z,53.20
2019-04-26T12:44:41.069Z,57.30
2019-04-26T12:47:21.095Z,63.80
2019-04-26T12:49:50.061Z,64.70
2019-04-26T12:52:21.625Z,66.70
2019-04-26T12:54:49.125Z,67.90
2019-04-26T12:57:17.882Z,63.00
2019-04-26T12:59:46.557Z,65.50
2019-04-26T13:02:16.564Z,66.70
2019-04-26T13:04:45.766Z,71.10
2019-04-26T13:07:23.667Z,69.10
2019-04-26T13:10:06.978Z,65.50
2019-04-26T13:12:53.618Z,67.50
2019-04-26T13:15:50.685Z,69.10
2019-04-26T13:18:20.569Z,70.30
2019-04-26T13:20:49.312Z,69.50
2019-04-26T13:23:17.997Z,73.30
2019-04-26T13:25:46.672Z,67.80
2019-04-26T13:28:15.665Z,68.70
2019-04-26T13:30:45.749Z,69.00
2019-04-26T13:33:14.498Z,68.10
2019-04-26T13:35:46.562Z,67.50
2019-04-26T13:38:13.571Z,66.90
2019-04-26T13:40:42.258Z,69.90
2019-04-26T13:43:10.932Z,66.20
2019-04-26T13:45:41.331Z,64.80
2019-04-26T13:48:27.650Z,66.20
2019-04-26T13:51:05.658Z,65.80
2019-04-26T13:53:34.414Z,67.60
2019-04-26T13:56:03.510Z,67.30
2019-04-26T13:58:32.245Z,68.70
2019-04-26T14:01:01.975Z,64.70
2019-04-26T14:03:31.602Z,66.10
2019-04-26T14:06:01.117Z,64.70
2019-04-26T14:08:29.790Z,59.30
2019-04-26T14:10:58.536Z,59.80
2019-04-26T14:13:27.285Z,60.00
2019-04-26T14:15:56.013Z,61.30
2019-04-26T14:18:24.824Z,59.60
2019-04-26T14:20:54.740Z,59.50
2019-04-26T14:23:34.346Z,57.50
2019-04-26T14:26:07.673Z,57.40
2019-04-26T14:28:36.427Z,58.00
2019-04-26T14:31:05.443Z,58.70
2019-04-26T14:33:34.210Z,57.90
2019-04-26T14:36:02.958Z,58.50
2019-04-26T14:38:39.356Z,57.50
2019-04-26T14:41:04.026Z,57.60
2019-04-26T14:43:40.385Z,58.30
2019-04-26T14:46:02.862Z,57.70
2019-04-26T14:48:36.093Z,56.60
2019-04-26T14:51:08.331Z,56.10
2019-04-26T14:53:36.269Z,57.40
2019-04-26T14:56:02.741Z,58.60
2019-04-26T14:58:33.607Z,59.90
2019-04-26T15:01:03.569Z,58.90
2019-04-26T15:03:34.099Z,59.30
2019-04-26T15:06:22.200Z,57.50
2019-04-26T15:08:52.965Z,57.00
2019-04-26T15:11:22.937Z,55.70
2019-04-26T15:13:51.762Z,56.20
2019-04-26T15:16:22.154Z,56.90
2019-04-26T15:18:52.465Z,57.50
2019-04-26T15:21:22.731Z,58.10
2019-04-26T15:23:55.279Z,59.00
2019-04-26T15:26:24.398Z,58.60
2019-04-26T15:28:52.154Z,60.50
2019-04-26T15:31:21.729Z,60.40
2019-04-26T15:33:52.796Z,60.30
2019-04-26T15:36:23.131Z,59.50
2019-04-26T15:38:52.873Z,59.90
2019-04-26T15:41:39.082Z,61.40
2019-04-26T15:44:28.205Z,61.60
2019-04-26T15:47:13.139Z,60.40
2019-04-26T15:49:49.245Z,60.00
2019-04-26T15:52:17.917Z,62.10
2019-04-26T15:54:46.661Z,60.00
2019-04-26T15:57:15.341Z,53.00
2019-04-26T15:59:44.165Z,54.80
2019-04-26T16:02:12.914Z,54.00
2019-04-26T16:04:42.458Z,54.80
2019-04-26T16:07:16.176Z,55.80
2019-04-26T16:09:43.193Z,57.10
2019-04-26T16:12:13.411Z,56.80
2019-04-26T16:14:42.319Z,55.90
2019-04-26T16:17:12.358Z,56.20
2019-04-26T16:19:41.210Z,56.50
2019-04-26T16:22:09.889Z,57.70
2019-04-26T16:24:38.638Z,56.20
2019-04-26T16:27:07.393Z,56.60
2019-04-26T16:29:37.774Z,55.90
2019-04-26T16:32:08.156Z,54.50
2019-04-26T16:34:42.937Z,53.80
2019-04-26T16:37:09.923Z,53.50
2019-04-26T16:39:40.049Z,53.20
2019-04-26T16:42:08.934Z,54.90
2019-04-26T16:44:37.608Z,56.80
2019-04-26T16:47:06.366Z,55.30
2019-04-26T16:49:41.636Z,58.60
2019-04-26T16:52:07.038Z,58.70
2019-04-26T16:54:35.869Z,57.60
2019-04-26T16:57:06.372Z,56.10
2019-04-26T16:59:35.019Z,55.80
2019-04-26T17:02:03.874Z,59.50
2019-04-26T17:04:36.222Z,59.80
2019-04-26T17:07:05.079Z,58.50
2019-04-26T17:09:54.454Z,55.40
2019-04-26T17:12:04.045Z,55.40
2019-04-26T17:14:34.141Z,56.10
2019-04-26T17:17:03.285Z,62.40
2019-04-26T17:19:35.841Z,64.80
2019-04-26T17:22:09.856Z,66.10
2019-04-26T17:24:53.382Z,62.20
2019-04-26T17:27:23.978Z,64.80
2019-04-26T17:29:52.907Z,66.20
2019-04-26T17:32:23.214Z,65.70
2019-04-26T17:34:54.304Z,63.30
2019-04-26T17:37:26.469Z,68.50
2019-04-26T17:39:55.404Z,69.60
2019-04-26T17:42:25.127Z,70.50
2019-04-26T17:44:53.204Z,71.90
2019-04-26T17:47:21.946Z,71.20
2019-04-26T17:49:52.439Z,71.50
2019-04-26T17:52:20.954Z,72.20
2019-04-26T17:54:51.827Z,70.90
2019-04-26T17:57:32.111Z,70.30
2019-04-26T17:59:51.525Z,71.10
2019-04-26T18:02:38.738Z,72.50
2019-04-26T18:04:58.916Z,71.90
2019-04-26T18:07:40.187Z,71.00
2019-04-26T18:09:52.531Z,63.20
2019-04-26T18:12:21.350Z,61.50
2019-04-26T18:14:50.106Z,61.40
2019-04-26T18:17:26.241Z,61.10
2019-04-26T18:19:56.552Z,60.20
2019-04-26T18:22:28.418Z,60.50
2019-04-26T18:24:57.131Z,60.80
2019-04-26T18:27:25.823Z,61.30
2019-04-26T18:29:54.499Z,60.90
2019-04-26T18:32:24.460Z,61.40
2019-04-26T18:34:53.676Z,61.10
2019-04-26T18:37:23.116Z,61.60
2019-04-26T18:39:53.365Z,61.30
2019-04-26T18:42:22.111Z,61.30
2019-04-26T18:44:50.793Z,61.80
2019-04-26T18:47:25.651Z,61.80
2019-04-26T18:49:57.778Z,62.40
2019-04-26T18:52:23.403Z,62.50
2019-04-26T18:54:58.294Z,62.50
2019-04-26T18:57:27.144Z,62.50
2019-04-26T18:59:55.833Z,62.80
2019-04-26T19:02:26.183Z,62.80
2019-04-26T19:04:54.934Z,63.30
2019-04-26T19:07:31.835Z,63.40
2019-04-26T19:10:00.729Z,63.30
2019-04-26T19:12:26.967Z,63.50
2019-04-26T19:15:14.432Z,63.50
2019-04-26T19:17:47.347Z,63.70
2019-04-26T19:20:23.793Z,64.60
2019-04-26T19:22:57.279Z,63.80
2019-04-26T19:25:29.844Z,64.20
2019-04-26T19:27:58.904Z,64.20
2019-04-26T19:30:27.110Z,64.40
2019-04-26T19:32:55.775Z,64.60
2019-04-26T19:35:24.446Z,64.90
2019-04-26T19:37:53.183Z,65.20
2019-04-26T19:40:27.314Z,65.40
2019-04-26T19:42:57.495Z,65.20
2019-04-26T19:45:39.582Z,65.70
2019-04-26T19:48:12.447Z,65.30
2019-04-26T19:50:48.668Z,66.20
2019-04-26T19:53:22.987Z,66.10
2019-04-26T19:55:58.172Z,66.40
2019-04-26T19:58:32.133Z,65.80
2019-04-26T20:01:01.943Z,66.40
2019-04-26T20:03:32.079Z,66.30
2019-04-26T20:06:01.654Z,66.00
2019-04-26T20:08:30.345Z,66.00
2019-04-26T20:10:59.019Z,66.00
2019-04-26T20:13:27.743Z,66.00
2019-04-26T20:15:57.427Z,66.50
2019-04-26T20:18:26.773Z,66.70
2019-04-26T20:20:55.458Z,66.80
2019-04-26T20:23:24.218Z,67.00
2019-04-26T20:25:53.112Z,67.00
2019-04-26T20:28:22.773Z,67.30
2019-04-26T20:30:57.975Z,67.40
2019-04-26T20:33:30.804Z,67.90
2019-04-26T20:35:57.522Z,67.90
2019-04-26T20:38:27.453Z,68.40
2019-04-26T20:40:56.068Z,68.20
2019-04-26T20:43:26.640Z,68.80
2019-04-26T20:46:11.054Z,68.70
2019-04-26T20:48:29.685Z,68.90
2019-04-26T20:50:55.934Z,69.10
2019-04-26T20:53:24.681Z,69.40
2019-04-26T20:55:53.430Z,69.50
2019-04-26T20:58:22.122Z,69.80
2019-04-26T21:00:54.643Z,70.10
2019-04-26T21:03:26.043Z,70.50
2019-04-26T21:05:58.792Z,71.00
2019-04-26T21:08:25.767Z,71.10
2019-04-26T21:10:56.075Z,70.70
2019-04-26T21:13:23.745Z,71.30
2019-04-26T21:15:58.302Z,71.30
2019-04-26T21:18:23.432Z,71.60
2019-04-26T21:20:52.257Z,72.00
2019-04-26T21:23:22.253Z,71.90
2019-04-26T21:25:55.458Z,72.00
2019-04-26T21:28:38.059Z,72.00
2019-04-26T21:31:22.712Z,71.70
2019-04-26T21:34:07.967Z,72.00
2019-04-26T21:36:53.360Z,72.40
2019-04-26T21:39:23.593Z,72.30
2019-04-26T21:41:53.909Z,72.40
2019-04-26T21:44:22.588Z,72.60
2019-04-26T21:46:56.193Z,72.50
2019-04-26T21:49:22.200Z,72.80
2019-04-26T21:51:54.105Z,72.90
2019-04-26T21:54:24.950Z,72.90
2019-04-26T21:56:53.728Z,74.00
2019-04-26T21:59:24.276Z,73.60
2019-04-26T22:01:58.835Z,73.60
2019-04-26T22:04:24.470Z,74.00
2019-04-26T22:06:53.429Z,74.30
2019-04-26T22:09:37.244Z,74.60
2019-04-26T22:12:07.558Z,74.70
2019-04-26T22:14:37.950Z,75.10
2019-04-26T22:17:14.342Z,75.20
2019-04-26T22:20:04.542Z,75.20
2019-04-26T22:22:44.526Z,75.10
2019-04-26T22:25:14.244Z,75.20
2019-04-26T22:27:43.711Z,75.50
2019-04-26T22:30:14.200Z,75.20
2019-04-26T22:32:42.883Z,75.30
2019-04-26T22:35:13.473Z,75.40
2019-04-26T22:37:45.560Z,75.50
2019-04-26T22:40:17.026Z,76.50
2019-04-26T22:42:44.477Z,75.90
2019-04-26T22:45:14.984Z,76.80
2019-04-26T22:47:45.357Z,76.30
2019-04-26T22:50:21.010Z,76.10
2019-04-26T22:52:51.119Z,76.20
2019-04-26T22:55:17.668Z,76.40
2019-04-26T22:57:45.306Z,76.90
2019-04-26T23:00:15.559Z,76.50
2019-04-26T23:02:45.734Z,76.60
2019-04-26T23:05:14.618Z,76.60
2019-04-26T23:07:43.299Z,76.90
2019-04-26T23:10:13.019Z,76.80
2019-04-26T23:13:07.421Z,76.80
2019-04-26T23:15:43.307Z,77.00
2019-04-26T23:18:16.381Z,77.00
2019-04-26T23:20:58.263Z,78.20
2019-04-26T23:23:27.001Z,78.80
2019-04-26T23:25:55.683Z,78.70
2019-04-26T23:28:27.640Z,79.00
2019-04-26T23:30:54.834Z,78.90
2019-04-26T23:33:23.922Z,80.00
2019-04-26T23:35:53.008Z,81.40
2019-04-26T23:38:23.419Z,80.80
2019-04-26T23:40:52.284Z,80.70
2019-04-26T23:43:24.015Z,80.60
2019-04-26T23:45:52.761Z,80.60
2019-04-26T23:48:22.314Z,80.50
2019-04-26T23:50:50.988Z,80.70
2019-04-26T23:53:20.517Z,80.80
2019-04-26T23:55:50.083Z,80.50
2019-04-26T23:58:18.763Z,80.50
